Waimanalo, Hawaii
Current Conditions -  °F | °C
As of 1:57 PM on Tuesday 25 Nov 2014 (Local Time) from PHNG Reporting Station
Overcast Overcast  
Wind Chill: 77°   Ceiling: 4400
Heat Index: 79°   Visibility: 10mi
Dew Point: 61°   Wind: 10mph
Humidity: 58%   Direction: 40°NE
Pressure: 30"   Gusts: NA
Location:  21.34°N, 157.71°W
Report Text: PHNG 252357Z 04009KT 10SM BKN044 OVC055 25/16 A3000 RMK AO2 SLP153 T02500161 10267 20233 56020 $
Loading
Personal Weather Stations






























Interactive Weather Map New forecast layout! Learn more

10-Day Weather Forecast

Advertisements
Track Severe Weather on mobile